createdAt,value
2018-07-13T00:00:35.122Z,101541.34
2018-07-13T00:03:03.142Z,101539.06
2018-07-13T00:05:31.173Z,101534.65
2018-07-13T00:07:59.202Z,101534.53
2018-07-13T00:10:27.229Z,101538.11
2018-07-13T00:12:55.248Z,101543.86
2018-07-13T00:15:23.282Z,101534.54
2018-07-13T00:17:51.305Z,101541.01
2018-07-13T00:20:19.333Z,101540.52
2018-07-13T00:22:47.360Z,101546.63
2018-07-13T00:25:15.392Z,101543.87
2018-07-13T00:27:43.426Z,101542.20
2018-07-13T00:30:11.450Z,101551.78
2018-07-13T00:32:39.737Z,101551.56
2018-07-13T00:35:07.760Z,101544.34
2018-07-13T00:37:35.792Z,101546.38
2018-07-13T00:40:04.460Z,101541.11
2018-07-13T00:42:32.515Z,101541.02
2018-07-13T00:45:00.548Z,101544.25
2018-07-13T00:47:28.976Z,101545.92
2018-07-13T00:49:57.009Z,101541.34
2018-07-13T00:52:25.059Z,101544.36
2018-07-13T00:54:53.089Z,101539.31
2018-07-13T00:57:21.118Z,101540.16
2018-07-13T00:59:49.146Z,101538.34
2018-07-13T01:02:17.165Z,101538.94
2018-07-13T01:04:45.202Z,101535.95
2018-07-13T01:07:13.252Z,101537.39
2018-07-13T01:09:41.288Z,101534.63
2018-07-13T01:12:09.327Z,101537.02
2018-07-13T01:14:37.349Z,101536.55
2018-07-13T01:17:05.392Z,101540.72
2018-07-13T01:19:33.459Z,101538.55
2018-07-13T01:22:01.594Z,101537.23
2018-07-13T01:24:29.620Z,101531.84
2018-07-13T01:26:57.648Z,101535.79
2018-07-13T01:29:25.676Z,101534.69
2018-07-13T01:31:53.762Z,101541.16
2018-07-13T01:34:21.780Z,101540.09
2018-07-13T01:36:50.074Z,101542.00
2018-07-13T01:39:18.073Z,101543.28
2018-07-13T01:41:46.101Z,101545.91
2018-07-13T01:44:14.153Z,101548.20
2018-07-13T01:46:42.200Z,101550.45
2018-07-13T01:49:10.236Z,101548.29
2018-07-13T01:51:38.267Z,101545.31
2018-07-13T01:54:06.337Z,101544.84
2018-07-13T01:56:34.584Z,101550.58
2018-07-13T01:59:03.084Z,101547.22
2018-07-13T02:01:31.340Z,101550.79
2018-07-13T02:03:59.612Z,101549.00
2018-07-13T02:06:27.633Z,101552.22
2018-07-13T02:08:56.361Z,101551.23
2018-07-13T02:11:24.400Z,101547.88
2018-07-13T02:13:52.459Z,101553.13
2018-07-13T02:16:20.493Z,101553.34
2018-07-13T02:18:48.644Z,101553.94
2018-07-13T02:21:16.672Z,101552.86
2018-07-13T02:23:44.755Z,101558.72
2018-07-13T02:26:12.974Z,101555.23
2018-07-13T02:28:41.021Z,101566.23
2018-07-13T02:31:09.055Z,101557.73
2018-07-13T02:33:37.081Z,101560.02
2018-07-13T02:36:05.154Z,101562.74
2018-07-13T02:38:33.197Z,101561.52
2018-07-13T02:41:01.219Z,101560.80
2018-07-13T02:43:29.254Z,101564.02
2018-07-13T02:45:57.281Z,101565.68
2018-07-13T02:48:25.428Z,101561.97
2018-07-13T02:50:53.548Z,101562.16
2018-07-13T02:53:21.586Z,101567.52
2018-07-13T02:55:49.637Z,101565.91
2018-07-13T02:58:17.689Z,101572.48
2018-07-13T03:00:45.974Z,101574.41
2018-07-13T03:03:14.045Z,101569.53
2018-07-13T03:05:42.114Z,101572.37
2018-07-13T03:08:10.370Z,101575.00
2018-07-13T03:10:38.402Z,101576.78
2018-07-13T03:13:06.449Z,101578.80
2018-07-13T03:15:34.479Z,101573.42
2018-07-13T03:18:02.513Z,101581.08
2018-07-13T03:20:30.844Z,101579.77
2018-07-13T03:22:58.908Z,101579.80
2018-07-13T03:25:26.976Z,101581.44
2018-07-13T03:27:55.049Z,101582.28
2018-07-13T03:30:23.440Z,101583.30
2018-07-13T03:32:51.518Z,101584.19
2018-07-13T03:35:20.206Z,101588.56
2018-07-13T03:37:48.242Z,101586.37
2018-07-13T03:40:16.304Z,101586.02
2018-07-13T03:42:44.597Z,101591.72
2018-07-13T03:45:12.773Z,101593.77
2018-07-13T03:47:40.850Z,101594.50
2018-07-13T03:50:08.933Z,101591.37
2018-07-13T03:52:36.969Z,101597.86
2018-07-13T03:55:05.080Z,101592.92
2018-07-13T03:57:33.104Z,101596.98
2018-07-13T04:00:01.141Z,101598.61
2018-07-13T04:02:29.492Z,101595.98
2018-07-13T04:04:57.520Z,101601.44
2018-07-13T04:07:25.738Z,101594.28
2018-07-13T04:09:53.764Z,101600.97
2018-07-13T04:12:21.958Z,101603.61
2018-07-13T04:14:50.143Z,101601.20
2018-07-13T04:17:18.165Z,101606.31
2018-07-13T04:19:46.189Z,101607.47
2018-07-13T04:22:14.238Z,101596.64
2018-07-13T04:24:42.268Z,101604.30
2018-07-13T04:27:10.351Z,101602.21
2018-07-13T04:29:38.989Z,101602.14
2018-07-13T04:32:07.019Z,101604.45
2018-07-13T04:34:35.138Z,101606.16
2018-07-13T04:37:03.175Z,101605.08
2018-07-13T04:39:31.591Z,101608.94
2018-07-13T04:41:59.625Z,101608.56
2018-07-13T04:44:27.648Z,101609.14
2018-07-13T04:46:55.893Z,101614.55
2018-07-13T04:49:23.916Z,101613.63
2018-07-13T04:51:51.971Z,101618.19
2018-07-13T04:54:20.008Z,101614.86
2018-07-13T04:56:48.117Z,101612.23
2018-07-13T04:59:16.141Z,101617.14
2018-07-13T05:01:44.434Z,101614.27
2018-07-13T05:04:12.424Z,101617.52
2018-07-13T05:06:40.448Z,101619.13
2018-07-13T05:09:09.136Z,101616.18
2018-07-13T05:11:37.348Z,101617.27
2018-07-13T05:14:05.381Z,101611.41
2018-07-13T05:16:33.402Z,101606.82
2018-07-13T05:19:01.434Z,101604.09
2018-07-13T05:21:29.620Z,101612.63
2018-07-13T05:23:57.780Z,101617.31
2018-07-13T05:26:25.857Z,101622.14
2018-07-13T05:28:53.897Z,101615.69
2018-07-13T05:31:22.167Z,101617.41
2018-07-13T05:33:50.185Z,101616.70
2018-07-13T05:36:18.213Z,101619.86
2018-07-13T05:38:46.258Z,101623.12
2018-07-13T05:41:14.460Z,101621.00
2018-07-13T05:43:42.656Z,101621.27
2018-07-13T05:46:10.689Z,101626.55
2018-07-13T05:48:39.508Z,101630.04
2018-07-13T05:51:07.533Z,101638.81
2018-07-13T05:53:35.948Z,101644.85
2018-07-13T05:56:04.836Z,101641.50
2018-07-13T05:58:32.937Z,101638.52
2018-07-13T06:01:01.297Z,101642.22
2018-07-13T06:03:29.699Z,101634.10
2018-07-13T06:05:57.736Z,101636.95
2018-07-13T06:08:25.825Z,101645.12
2018-07-13T06:10:53.885Z,101641.94
2018-07-13T06:13:21.981Z,101640.16
2018-07-13T06:15:50.022Z,101649.39
2018-07-13T06:18:18.085Z,101644.83
2018-07-13T06:20:46.127Z,101644.70
2018-07-13T06:23:14.241Z,101646.28
2018-07-13T06:25:42.522Z,101641.13
2018-07-13T06:28:10.573Z,101646.19
2018-07-13T06:30:38.800Z,101649.30
2018-07-13T06:33:07.346Z,101655.17
2018-07-13T06:35:35.541Z,101656.48
2018-07-13T06:38:03.565Z,101658.31
2018-07-13T06:40:31.610Z,101662.14
2018-07-13T06:42:59.640Z,101660.00
2018-07-13T06:45:27.680Z,101662.88
2018-07-13T06:47:55.740Z,101657.09
2018-07-13T06:50:23.834Z,101655.59
2018-07-13T06:52:51.808Z,101658.09
2018-07-13T06:55:19.838Z,101663.23
2018-07-13T06:57:59.388Z,101665.03
2018-07-13T07:01:00.461Z,101663.80
2018-07-13T07:03:29.564Z,101671.97
2018-07-13T07:06:13.460Z,101672.58
2018-07-13T07:08:44.969Z,101670.91
2018-07-13T07:11:13.017Z,101673.17
2018-07-13T07:13:42.932Z,101675.36
2018-07-13T07:16:11.068Z,101678.88
2018-07-13T07:18:39.129Z,101684.00
2018-07-13T07:21:07.649Z,101677.50
2018-07-13T07:23:36.035Z,101676.70
2018-07-13T07:26:05.433Z,101681.63
2018-07-13T07:28:33.524Z,101680.28
2018-07-13T07:31:02.229Z,101680.61
2018-07-13T07:33:30.266Z,101679.97
2018-07-13T07:35:58.313Z,101682.23
2018-07-13T07:38:26.444Z,101684.74
2018-07-13T07:40:54.429Z,101679.94
2018-07-13T07:43:22.460Z,101684.74
2018-07-13T07:45:50.544Z,101681.25
2018-07-13T07:48:18.565Z,101684.55
2018-07-13T07:50:46.597Z,101677.27
2018-07-13T07:53:14.639Z,101679.75
2018-07-13T07:55:42.690Z,101677.63
2018-07-13T07:58:10.897Z,101683.34
2018-07-13T08:00:38.936Z,101685.22
2018-07-13T08:03:06.985Z,101687.08
2018-07-13T08:05:35.202Z,101688.71
2018-07-13T08:08:03.249Z,101679.31
2018-07-13T08:10:31.288Z,101681.56
2018-07-13T08:12:59.330Z,101677.66
2018-07-13T08:15:27.375Z,101680.55
2018-07-13T08:17:55.429Z,101679.66
2018-07-13T08:20:28.904Z,101678.35
2018-07-13T08:22:57.931Z,101683.00
2018-07-13T08:25:27.027Z,101684.92
2018-07-13T08:27:59.208Z,101680.25
2018-07-13T08:30:33.097Z,101679.34
2018-07-13T08:33:01.127Z,101677.30
2018-07-13T08:35:29.153Z,101684.20
2018-07-13T08:37:57.640Z,101685.46
2018-07-13T08:40:25.708Z,101677.55
2018-07-13T08:42:53.970Z,101676.67
2018-07-13T08:45:21.992Z,101683.09
2018-07-13T08:47:50.035Z,101685.51
2018-07-13T08:50:19.101Z,101686.42
2018-07-13T08:52:47.150Z,101687.68
2018-07-13T08:55:16.221Z,101686.27
2018-07-13T08:57:45.893Z,101687.66
2018-07-13T09:00:13.933Z,101681.34
2018-07-13T09:02:41.958Z,101685.69
2018-07-13T09:05:10.110Z,101678.70
2018-07-13T09:07:38.780Z,101680.22
2018-07-13T09:10:09.876Z,101678.09
2018-07-13T09:12:38.403Z,101677.59
2018-07-13T09:15:07.209Z,101675.42
2018-07-13T09:17:35.226Z,101679.41
2018-07-13T09:20:03.257Z,101678.74
2018-07-13T09:22:31.398Z,101680.92
2018-07-13T09:24:59.444Z,101683.77
2018-07-13T09:27:27.563Z,101684.27
2018-07-13T09:29:55.596Z,101683.42
2018-07-13T09:32:23.614Z,101676.35
2018-07-13T09:34:51.661Z,101681.02
2018-07-13T09:37:20.134Z,101675.67
2018-07-13T09:39:48.165Z,101677.39
2018-07-13T09:42:16.183Z,101685.04
2018-07-13T09:44:44.477Z,101679.12
2018-07-13T09:47:12.549Z,101681.13
2018-07-13T09:49:40.560Z,101682.45
2018-07-13T09:52:08.880Z,101681.83
2018-07-13T09:54:36.908Z,101683.98
2018-07-13T09:57:05.553Z,101679.18
2018-07-13T09:59:33.702Z,101676.86
2018-07-13T10:02:01.721Z,101685.48
2018-07-13T10:04:29.751Z,101681.33
2018-07-13T10:06:57.772Z,101685.06
2018-07-13T10:09:25.814Z,101681.33
2018-07-13T10:11:53.860Z,101691.75
2018-07-13T10:14:21.889Z,101690.06
2018-07-13T10:16:49.928Z,101677.78
2018-07-13T10:19:17.981Z,101686.44
2018-07-13T10:21:47.374Z,101680.61
2018-07-13T10:24:17.788Z,101678.73
2018-07-13T10:26:46.012Z,101675.23
2018-07-13T10:29:18.355Z,101677.89
2018-07-13T10:31:46.379Z,101679.69
2018-07-13T10:34:15.152Z,101673.77
2018-07-13T10:36:46.988Z,101673.55
2018-07-13T10:39:15.022Z,101669.65
2018-07-13T10:41:43.178Z,101669.16
2018-07-13T10:44:11.222Z,101674.41
2018-07-13T10:46:39.254Z,101672.05
2018-07-13T10:49:07.416Z,101673.17
2018-07-13T10:51:35.698Z,101665.39
2018-07-13T10:54:04.599Z,101669.72
2018-07-13T10:56:32.629Z,101671.14
2018-07-13T10:59:01.048Z,101666.88
2018-07-13T11:01:29.074Z,101665.81
2018-07-13T11:03:57.124Z,101663.35
2018-07-13T11:06:25.176Z,101663.73
2018-07-13T11:08:53.218Z,101659.16
2018-07-13T11:11:21.405Z,101660.81
2018-07-13T11:13:50.101Z,101659.81
2018-07-13T11:16:18.081Z,101659.16
2018-07-13T11:18:46.105Z,101656.10
2018-07-13T11:21:14.140Z,101652.94
2018-07-13T11:23:42.259Z,101648.84
2018-07-13T11:26:10.278Z,101647.30
2018-07-13T11:28:39.309Z,101646.09
2018-07-13T11:31:07.344Z,101642.51
2018-07-13T11:33:35.573Z,101646.98
2018-07-13T11:36:03.740Z,101647.09
2018-07-13T11:38:32.025Z,101648.13
2018-07-13T11:41:06.868Z,101646.14
2018-07-13T11:43:34.909Z,101646.41
2018-07-13T11:46:03.080Z,101647.69
2018-07-13T11:48:31.405Z,101644.53
2018-07-13T11:50:59.445Z,101643.69
2018-07-13T11:53:27.480Z,101651.25
2018-07-13T11:55:55.525Z,101646.22
2018-07-13T11:58:23.565Z,101644.16
2018-07-13T12:00:51.595Z,101636.23
2018-07-13T12:03:19.620Z,101637.56
2018-07-13T12:05:47.649Z,101635.20
2018-07-13T12:08:15.711Z,101635.63
2018-07-13T12:10:44.117Z,101633.63
2018-07-13T12:13:12.133Z,101637.15
2018-07-13T12:15:40.170Z,101630.20
2018-07-13T12:18:08.233Z,101624.75
2018-07-13T12:20:36.275Z,101619.78
2018-07-13T12:23:04.973Z,101615.86
2018-07-13T12:25:33.057Z,101607.23
2018-07-13T12:28:01.085Z,101614.55
2018-07-13T12:30:29.297Z,101615.44
2018-07-13T12:32:57.333Z,101611.17
2018-07-13T12:35:25.370Z,101612.38
2018-07-13T12:37:53.468Z,101608.23
2018-07-13T12:40:21.440Z,101609.59
2018-07-13T12:42:49.473Z,101604.45
2018-07-13T12:45:17.509Z,101606.55
2018-07-13T12:47:45.545Z,101606.64
2018-07-13T12:50:13.585Z,101607.83
2018-07-13T12:52:41.667Z,101604.48
2018-07-13T12:55:09.704Z,101606.19
2018-07-13T12:57:37.740Z,101607.42
2018-07-13T13:00:05.779Z,101596.56
2018-07-13T13:02:33.820Z,101605.39
2018-07-13T13:05:01.862Z,101600.45
2018-07-13T13:07:30.137Z,101599.23
2018-07-13T13:09:58.299Z,101597.55
2018-07-13T13:12:26.339Z,101589.83
2018-07-13T13:14:54.365Z,101591.09
2018-07-13T13:17:22.393Z,101586.09
2018-07-13T13:19:50.422Z,101587.98
2018-07-13T13:22:18.451Z,101582.86
2018-07-13T13:24:46.496Z,101589.09
2018-07-13T13:27:14.533Z,101592.20
2018-07-13T13:29:42.557Z,101588.78
2018-07-13T13:32:10.589Z,101586.71
2018-07-13T13:34:38.623Z,101583.63
2018-07-13T13:37:06.657Z,101586.41
2018-07-13T13:39:34.684Z,101585.27
2018-07-13T13:42:02.716Z,101579.88
2018-07-13T13:44:30.897Z,101569.73
2018-07-13T13:46:58.912Z,101581.65
2018-07-13T13:49:26.964Z,101580.62
2018-07-13T13:51:54.992Z,101578.95
2018-07-13T13:54:23.032Z,101577.84
2018-07-13T13:56:51.089Z,101582.77
2018-07-13T13:59:19.104Z,101581.20
2018-07-13T14:01:47.149Z,101569.75
2018-07-13T14:04:19.347Z,101571.33
2018-07-13T14:06:47.553Z,101576.13
2018-07-13T14:09:15.625Z,101570.13
2018-07-13T14:11:43.584Z,101572.75
2018-07-13T14:14:12.064Z,101573.91
2018-07-13T14:16:40.432Z,101568.70
2018-07-13T14:19:08.500Z,101573.61
2018-07-13T14:21:36.519Z,101565.50
2018-07-13T14:24:04.774Z,101559.15
2018-07-13T14:26:33.330Z,101559.06
2018-07-13T14:29:02.170Z,101558.19
2018-07-13T14:31:31.003Z,101555.16
2018-07-13T14:33:59.025Z,101550.50
2018-07-13T14:36:27.148Z,101556.29
2018-07-13T14:38:55.172Z,101552.01
2018-07-13T14:41:23.202Z,101553.66
2018-07-13T14:43:51.235Z,101549.06
2018-07-13T14:46:19.248Z,101550.33
2018-07-13T14:48:47.276Z,101542.30
2018-07-13T14:51:15.574Z,101542.30
2018-07-13T14:53:44.332Z,101534.66
2018-07-13T14:56:12.817Z,101536.09
2018-07-13T14:58:41.329Z,101539.86
2018-07-13T15:01:10.630Z,101531.95
2018-07-13T15:03:39.131Z,101531.05
2018-07-13T15:06:07.256Z,101526.11
2018-07-13T15:08:35.470Z,101527.64
2018-07-13T15:11:03.490Z,101524.78
2018-07-13T15:13:31.521Z,101518.14
2018-07-13T15:15:59.534Z,101526.97
2018-07-13T15:18:27.554Z,101519.75
2018-07-13T15:20:55.576Z,101523.61
2018-07-13T15:23:23.893Z,101511.67
2018-07-13T15:26:04.092Z,101511.34
2018-07-13T15:28:32.122Z,101516.20
2018-07-13T15:31:01.316Z,101512.59
2018-07-13T15:33:29.338Z,101513.02
2018-07-13T15:35:57.356Z,101510.34
2018-07-13T15:38:25.368Z,101514.83
2018-07-13T15:40:53.399Z,101511.61
2018-07-13T15:43:21.449Z,101506.62
2018-07-13T15:45:49.747Z,101512.53
2018-07-13T15:48:17.768Z,101512.33
2018-07-13T15:50:45.884Z,101512.09
2018-07-13T15:53:13.976Z,101508.38
2018-07-13T15:55:47.333Z,101509.48
2018-07-13T15:58:15.346Z,101506.89
2018-07-13T16:00:43.364Z,101501.39
2018-07-13T16:03:11.602Z,101500.02
2018-07-13T16:05:39.933Z,101499.59
2018-07-13T16:08:08.215Z,101496.45
2018-07-13T16:10:36.789Z,101500.19
2018-07-13T16:13:04.897Z,101492.98
2018-07-13T16:15:33.429Z,101489.45
2018-07-13T16:18:01.474Z,101485.61
2018-07-13T16:20:29.488Z,101487.89
2018-07-13T16:22:57.568Z,101493.98
2018-07-13T16:25:25.867Z,101494.77
2018-07-13T16:27:55.264Z,101494.00
2018-07-13T16:30:24.540Z,101494.91
2018-07-13T16:32:52.564Z,101493.67
2018-07-13T16:35:20.680Z,101487.34
2018-07-13T16:37:48.685Z,101491.92
2018-07-13T16:40:16.828Z,101483.48
2018-07-13T16:42:44.859Z,101481.89
2018-07-13T16:45:13.016Z,101482.70
2018-07-13T16:47:41.008Z,101487.41
2018-07-13T16:50:09.017Z,101480.14
2018-07-13T16:52:37.500Z,101478.16
2018-07-13T16:55:05.677Z,101481.56
2018-07-13T16:57:34.251Z,101471.70
2018-07-13T17:00:02.276Z,101475.75
2018-07-13T17:02:30.557Z,101475.88
2018-07-13T17:04:58.766Z,101478.56
2018-07-13T17:07:26.841Z,101477.42
2018-07-13T17:09:54.901Z,101470.86
2018-07-13T17:12:23.621Z,101482.98
2018-07-13T17:14:51.663Z,101475.14
2018-07-13T17:17:20.505Z,101469.20
2018-07-13T17:19:48.645Z,101469.52
2018-07-13T17:22:16.660Z,101473.38
2018-07-13T17:24:44.716Z,101477.52
2018-07-13T17:27:12.962Z,101473.61
2018-07-13T17:29:40.976Z,101471.89
2018-07-13T17:32:09.544Z,101469.12
2018-07-13T17:34:37.566Z,101476.52
2018-07-13T17:37:05.590Z,101473.48
2018-07-13T17:39:33.932Z,101474.72
2018-07-13T17:42:01.981Z,101472.23
2018-07-13T17:44:30.981Z,101474.77
2018-07-13T17:46:59.003Z,101476.25
2018-07-13T17:49:45.729Z,101472.88
2018-07-13T17:52:13.757Z,101476.38
2018-07-13T17:54:43.234Z,101474.96
2018-07-13T17:57:11.607Z,101472.10
2018-07-13T17:59:39.645Z,101469.95
2018-07-13T18:02:07.658Z,101475.55
2018-07-13T18:04:35.820Z,101476.11
2018-07-13T18:07:04.875Z,101473.25
2018-07-13T18:09:36.116Z,101475.98
2018-07-13T18:12:07.460Z,101471.56
2018-07-13T18:14:35.800Z,101470.75
2018-07-13T18:17:04.809Z,101473.80
2018-07-13T18:19:32.844Z,101471.25
2018-07-13T18:22:00.867Z,101473.11
2018-07-13T18:24:28.894Z,101469.75
2018-07-13T18:26:57.080Z,101476.78
2018-07-13T18:29:25.764Z,101474.13
2018-07-13T18:31:55.057Z,101486.60
2018-07-13T18:34:23.071Z,101487.84
2018-07-13T18:36:51.152Z,101483.67
2018-07-13T18:39:19.886Z,101484.23
2018-07-13T18:41:49.501Z,101483.47
2018-07-13T18:44:17.567Z,101488.46
2018-07-13T18:46:45.606Z,101491.31
2018-07-13T18:49:13.662Z,101492.84
2018-07-13T18:51:48.333Z,101496.88
2018-07-13T18:54:16.622Z,101498.02
2018-07-13T18:56:44.725Z,101496.89
2018-07-13T18:59:13.080Z,101498.41
2018-07-13T19:01:41.115Z,101505.08
2018-07-13T19:04:09.144Z,101505.74
2018-07-13T19:06:37.621Z,101512.23
2018-07-13T19:09:06.866Z,101508.54
2018-07-13T19:11:34.902Z,101503.83
2018-07-13T19:14:03.498Z,101511.98
2018-07-13T19:16:31.557Z,101517.14
2018-07-13T19:18:59.810Z,101513.92
2018-07-13T19:21:27.873Z,101514.41
2018-07-13T19:23:55.922Z,101515.07
2018-07-13T19:26:25.041Z,101522.90
2018-07-13T19:28:53.082Z,101523.73
2018-07-13T19:31:23.213Z,101522.03
2018-07-13T19:33:51.275Z,101534.56
2018-07-13T19:36:19.402Z,101530.66
2018-07-13T19:38:47.397Z,101538.78
2018-07-13T19:41:15.421Z,101538.41
2018-07-13T19:43:43.621Z,101539.41
2018-07-13T19:46:11.662Z,101543.02
2018-07-13T19:48:39.690Z,101541.97
2018-07-13T19:51:10.082Z,101548.17
2018-07-13T19:53:38.156Z,101550.81
2018-07-13T19:56:06.308Z,101557.36
2018-07-13T19:58:34.486Z,101560.31
2018-07-13T20:01:02.823Z,101566.20
2018-07-13T20:03:31.572Z,101571.41
2018-07-13T20:05:59.570Z,101571.98
2018-07-13T20:08:27.593Z,101574.07
2018-07-13T20:10:55.635Z,101576.97
2018-07-13T20:13:23.801Z,101582.24
2018-07-13T20:15:51.825Z,101587.31
2018-07-13T20:18:19.888Z,101586.70
2018-07-13T20:20:47.923Z,101594.62
2018-07-13T20:23:15.999Z,101587.23
2018-07-13T20:25:44.055Z,101587.67
2018-07-13T20:28:12.537Z,101590.55
2018-07-13T20:30:40.609Z,101589.21
2018-07-13T20:33:08.658Z,101591.19
2018-07-13T20:35:36.681Z,101589.63
2018-07-13T20:38:04.941Z,101592.40
2018-07-13T20:40:32.973Z,101595.66
2018-07-13T20:43:01.277Z,101600.77
2018-07-13T20:45:29.509Z,101595.72
2018-07-13T20:47:57.591Z,101594.91
2018-07-13T20:50:25.588Z,101595.97
2018-07-13T20:52:53.617Z,101599.97
2018-07-13T20:55:21.958Z,101607.52
2018-07-13T20:57:49.995Z,101602.20
2018-07-13T21:00:18.401Z,101605.41
2018-07-13T21:02:46.443Z,101613.30
2018-07-13T21:05:14.536Z,101615.73
2018-07-13T21:07:42.569Z,101613.64
2018-07-13T21:10:10.745Z,101614.50
2018-07-13T21:12:38.765Z,101615.94
2018-07-13T21:15:06.810Z,101617.63
2018-07-13T21:17:34.846Z,101619.14
2018-07-13T21:20:04.382Z,101622.94
2018-07-13T21:22:32.565Z,101617.15
2018-07-13T21:25:00.600Z,101619.10
2018-07-13T21:27:28.671Z,101619.10
2018-07-13T21:29:56.693Z,101616.48
2018-07-13T21:32:24.846Z,101623.17
2018-07-13T21:34:52.892Z,101623.87
2018-07-13T21:37:20.926Z,101626.37
2018-07-13T21:39:48.967Z,101620.73
2018-07-13T21:42:17.024Z,101624.94
2018-07-13T21:44:45.064Z,101628.61
2018-07-13T21:47:13.115Z,101624.69
2018-07-13T21:49:41.144Z,101626.41
2018-07-13T21:52:09.493Z,101630.66
2018-07-13T21:54:37.457Z,101634.69
2018-07-13T21:57:05.577Z,101628.97
2018-07-13T21:59:33.949Z,101628.72
2018-07-13T22:02:01.989Z,101634.16
2018-07-13T22:04:30.086Z,101635.50
2018-07-13T22:06:58.117Z,101636.63
2018-07-13T22:09:26.153Z,101642.94
2018-07-13T22:11:54.176Z,101638.38
2018-07-13T22:14:22.201Z,101638.62
2018-07-13T22:16:50.232Z,101640.13
2018-07-13T22:19:18.255Z,101634.99
2018-07-13T22:21:46.311Z,101646.78
2018-07-13T22:24:14.343Z,101646.41
2018-07-13T22:26:42.382Z,101648.34
2018-07-13T22:29:10.410Z,101650.65
2018-07-13T22:31:38.451Z,101640.67
2018-07-13T22:34:06.608Z,101644.07
2018-07-13T22:36:34.657Z,101645.19
2018-07-13T22:39:02.725Z,101639.70
2018-07-13T22:41:30.759Z,101637.63
2018-07-13T22:43:58.806Z,101642.64
2018-07-13T22:46:40.257Z,101638.78
2018-07-13T22:49:08.297Z,101641.66
2018-07-13T22:51:36.751Z,101649.86
2018-07-13T22:54:04.985Z,101649.97
2018-07-13T22:56:33.021Z,101649.26
2018-07-13T22:59:01.057Z,101649.26
2018-07-13T23:01:29.106Z,101652.75
2018-07-13T23:03:57.116Z,101658.41
2018-07-13T23:06:25.173Z,101658.41
2018-07-13T23:08:53.198Z,101657.36
2018-07-13T23:11:21.557Z,101660.47
2018-07-13T23:13:49.601Z,101663.59
2018-07-13T23:16:17.664Z,101659.14
2018-07-13T23:18:45.704Z,101665.91
2018-07-13T23:21:13.736Z,101666.75
2018-07-13T23:23:41.787Z,101667.97
2018-07-13T23:26:09.841Z,101661.62
2018-07-13T23:28:37.866Z,101658.05
2018-07-13T23:31:05.979Z,101656.46
2018-07-13T23:33:34.021Z,101652.37
2018-07-13T23:36:02.554Z,101654.20
2018-07-13T23:38:30.577Z,101647.11
2018-07-13T23:40:58.599Z,101648.34
2018-07-13T23:43:26.629Z,101645.71
2018-07-13T23:45:54.651Z,101637.41
2018-07-13T23:48:22.700Z,101640.91
2018-07-13T23:50:50.745Z,101639.11
2018-07-13T23:53:19.060Z,101641.96
2018-07-13T23:55:47.106Z,101645.11
2018-07-13T23:58:15.133Z,101642.47
